Bitter Creek, Wyoming
Current Conditions -  °F | °C
As of 9:54 PM on Saturday 20 Dec 2014 (Local Time) from KRKS Reporting Station
Broken Clouds Broken Clouds  
Wind Chill: 16°   Ceiling: 4900
Heat Index: 29°   Visibility: 10mi
Dew Point: 26°   Wind: 18mph
Humidity: 89%   Direction: 250°WSW
Pressure: 29.96"   Gusts: NA
Location:  41.6045°N, 108.954°W
Report Text: KRKS 210454Z AUTO 25016KT 10SM BKN049 M02/M03 A2996 RMK AO2 SLP166 T10171033
Loading
Personal Weather Stations






























Interactive Weather Map New forecast layout! Learn more

10-Day Weather Forecast

Advertisements
Track Severe Weather on mobile